createdAt,value
2023-03-30T00:00:20.078Z,30.1
2023-03-30T00:05:19.918Z,30.4
2023-03-30T00:10:19.933Z,30.7
2023-03-30T00:15:16.920Z,30.2
2023-03-30T00:20:17.006Z,30.5
2023-03-30T00:25:19.955Z,30.9
2023-03-30T00:30:19.954Z,30.7
2023-03-30T00:35:19.988Z,30.6
2023-03-30T00:40:20.032Z,30.8
2023-03-30T00:45:20.011Z,30.7
2023-03-30T00:50:20.150Z,31.0
2023-03-30T00:55:20.048Z,30.4
2023-03-30T01:00:20.020Z,30.8
2023-03-30T01:05:20.121Z,30.6
2023-03-30T01:10:17.040Z,30.9
2023-03-30T01:15:16.988Z,30.9
2023-03-30T01:20:20.109Z,30.9
2023-03-30T01:25:20.211Z,30.9
2023-03-30T01:30:20.055Z,30.9
2023-03-30T01:35:20.205Z,30.8
2023-03-30T01:40:20.132Z,30.5
2023-03-30T01:45:20.142Z,30.7
2023-03-30T01:50:20.142Z,30.7
2023-03-30T01:55:20.151Z,31.1
2023-03-30T02:00:20.169Z,30.9
2023-03-30T02:05:17.071Z,30.9
2023-03-30T02:10:20.204Z,30.5
2023-03-30T02:15:20.177Z,30.3
2023-03-30T02:20:20.232Z,30.0
2023-03-30T02:25:20.246Z,30.0
2023-03-30T02:30:20.184Z,29.9
2023-03-30T02:35:20.284Z,29.8
2023-03-30T02:40:20.166Z,29.8
2023-03-30T02:45:20.247Z,30.0
2023-03-30T02:50:20.186Z,29.7
2023-03-30T02:55:17.139Z,29.9
2023-03-30T03:00:17.147Z,29.6
2023-03-30T03:05:20.295Z,29.8
2023-03-30T03:10:20.308Z,29.7
2023-03-30T03:15:20.278Z,29.7
2023-03-30T03:20:20.354Z,29.5
2023-03-30T03:25:20.317Z,30.0
2023-03-30T03:30:20.302Z,29.6
2023-03-30T03:35:20.279Z,30.0
2023-03-30T03:40:20.386Z,29.6
2023-03-30T03:45:20.430Z,30.0
2023-03-30T03:50:17.262Z,29.9
2023-03-30T03:55:17.231Z,30.1
2023-03-30T04:00:19.930Z,30.1
2023-03-30T04:05:16.578Z,30.0
2023-03-30T04:10:19.799Z,29.9
2023-03-30T04:15:19.671Z,30.2
2023-03-30T04:20:19.725Z,30.5
2023-03-30T04:25:21.398Z,30.1
2023-03-30T04:30:19.634Z,30.3
2023-03-30T04:35:19.629Z,30.3
2023-03-30T04:40:19.725Z,30.2
2023-03-30T04:45:19.922Z,30.0
2023-03-30T04:50:19.726Z,30.4
2023-03-30T04:55:16.747Z,30.2
2023-03-30T05:00:16.583Z,30.2
2023-03-30T05:05:19.782Z,29.8
2023-03-30T05:10:19.695Z,29.8
2023-03-30T05:15:19.785Z,29.8
2023-03-30T05:20:20.004Z,29.4
2023-03-30T05:25:19.899Z,29.4
2023-03-30T05:30:19.745Z,29.6
2023-03-30T05:35:19.789Z,29.6
2023-03-30T05:40:19.849Z,30.1
2023-03-30T05:45:19.868Z,30.0
2023-03-30T05:50:16.782Z,31.4
2023-03-30T05:55:16.701Z,32.0
2023-03-30T06:00:19.993Z,31.5
2023-03-30T06:05:19.921Z,29.5
2023-03-30T06:10:19.879Z,25.3
2023-03-30T06:15:19.909Z,26.8
2023-03-30T06:20:19.846Z,26.2
2023-03-30T06:25:19.898Z,26.8
2023-03-30T06:30:19.918Z,26.6
2023-03-30T06:35:20.142Z,26.0
2023-03-30T06:40:19.979Z,25.6
2023-03-30T06:45:17.049Z,25.1
2023-03-30T06:50:16.923Z,25.4
2023-03-30T06:55:20.150Z,24.8
2023-03-30T07:00:20.007Z,25.1
2023-03-30T07:05:19.993Z,24.8
2023-03-30T07:10:19.858Z,26.0
2023-03-30T07:15:19.999Z,25.0
2023-03-30T07:20:20.075Z,24.9
2023-03-30T07:25:19.996Z,25.5
2023-03-30T07:30:22.109Z,25.4
2023-03-30T07:35:16.948Z,25.3
2023-03-30T07:40:16.952Z,26.8
2023-03-30T07:45:20.206Z,27.1
2023-03-30T07:50:20.058Z,25.6
2023-03-30T07:55:20.106Z,24.7
2023-03-30T08:00:20.133Z,21.3
2023-03-30T08:05:20.214Z,20.2
2023-03-30T08:10:20.015Z,19.4
2023-03-30T08:15:20.075Z,20.1
2023-03-30T08:20:20.311Z,19.8
2023-03-30T08:25:20.176Z,19.0
2023-03-30T08:30:17.058Z,20.9
2023-03-30T08:35:17.089Z,19.9
2023-03-30T08:40:20.390Z,20.1
2023-03-30T08:45:20.352Z,16.8
2023-03-30T08:50:20.147Z,17.4
2023-03-30T08:55:20.334Z,16.2
2023-03-30T09:00:20.278Z,16.1
2023-03-30T09:05:20.216Z,15.4
2023-03-30T09:10:20.204Z,16.1
2023-03-30T09:15:20.264Z,15.6
2023-03-30T09:20:20.344Z,14.9
2023-03-30T09:25:17.228Z,16.2
2023-03-30T09:30:17.204Z,15.7
2023-03-30T09:35:20.375Z,15.6
2023-03-30T09:40:20.387Z,15.4
2023-03-30T09:45:20.252Z,16.1
2023-03-30T09:50:20.306Z,14.7
2023-03-30T09:55:20.371Z,15.4
2023-03-30T10:00:20.528Z,16.1
2023-03-30T10:05:20.354Z,15.6
2023-03-30T10:10:20.527Z,16.0
2023-03-30T10:15:17.409Z,15.4
2023-03-30T10:20:17.317Z,14.9
2023-03-30T10:25:17.457Z,15.7
2023-03-30T10:30:20.436Z,17.8
2023-03-30T10:35:20.558Z,15.7
2023-03-30T10:40:20.433Z,16.5
2023-03-30T10:45:20.445Z,16.5
2023-03-30T10:50:20.481Z,17.3
2023-03-30T10:55:20.459Z,16.8
2023-03-30T11:00:20.473Z,16.7
2023-03-30T11:05:20.518Z,16.3
2023-03-30T11:10:17.501Z,17.6
2023-03-30T11:15:17.466Z,16.4
2023-03-30T11:20:20.504Z,16.5
2023-03-30T11:25:20.748Z,16.7
2023-03-30T11:30:20.706Z,15.8
2023-03-30T11:35:20.524Z,16.1
2023-03-30T11:40:20.593Z,16.1
2023-03-30T11:45:20.585Z,15.9
2023-03-30T11:50:20.616Z,17.4
2023-03-30T11:55:20.675Z,16.3
2023-03-30T12:00:18.617Z,16.7
2023-03-30T12:05:18.593Z,15.5
2023-03-30T12:10:18.725Z,15.8
2023-03-30T12:15:18.655Z,14.9
2023-03-30T12:20:18.631Z,16.2
2023-03-30T12:25:18.611Z,15.9
2023-03-30T12:30:18.698Z,15.9
2023-03-30T12:35:18.650Z,15.1
2023-03-30T12:40:18.669Z,15.7
2023-03-30T12:45:15.550Z,16.3
2023-03-30T12:50:15.778Z,16.2
2023-03-30T12:55:18.739Z,14.8
2023-03-30T13:00:18.786Z,14.8
2023-03-30T13:05:18.807Z,14.0
2023-03-30T13:10:18.768Z,14.4
2023-03-30T13:15:18.653Z,13.3
2023-03-30T13:20:29.050Z,12.2
2023-03-30T13:25:18.825Z,12.3
2023-03-30T13:30:18.789Z,12.0
2023-03-30T13:35:15.778Z,13.0
2023-03-30T13:40:24.339Z,11.9
2023-03-30T13:45:18.968Z,10.9
2023-03-30T13:50:18.796Z,9.9
2023-03-30T13:55:16.123Z,9.5
2023-03-30T14:00:18.858Z,8.9
2023-03-30T14:05:15.932Z,8.0
2023-03-30T14:10:18.919Z,8.8
2023-03-30T14:15:18.958Z,8.8
2023-03-30T14:20:18.954Z,7.8
2023-03-30T14:25:18.921Z,8.8
2023-03-30T14:30:15.902Z,8.6
2023-03-30T14:35:15.864Z,8.9
2023-03-30T14:40:18.998Z,7.9
2023-03-30T14:45:18.987Z,8.4
2023-03-30T14:50:18.961Z,8.3
2023-03-30T14:55:19.109Z,10.0
2023-03-30T15:00:19.038Z,8.6
2023-03-30T15:05:19.101Z,7.6
2023-03-30T15:10:19.028Z,8.3
2023-03-30T15:15:19.040Z,7.9
2023-03-30T15:20:18.986Z,8.7
2023-03-30T15:25:15.969Z,10.3
2023-03-30T15:30:19.225Z,9.0
2023-03-30T15:35:19.061Z,10.4
2023-03-30T15:40:19.043Z,9.2
2023-03-30T15:45:19.142Z,7.4
2023-03-30T15:50:19.031Z,8.7
2023-03-30T15:55:19.177Z,6.7
2023-03-30T16:00:20.608Z,7.5
2023-03-30T16:05:19.322Z,5.9
2023-03-30T16:10:19.149Z,6.4
2023-03-30T16:15:16.118Z,6.3
2023-03-30T16:20:16.112Z,4.5
2023-03-30T16:25:19.199Z,6.7
2023-03-30T16:30:19.257Z,5.3
2023-03-30T16:35:19.167Z,7.2
2023-03-30T16:40:19.263Z,8.9
2023-03-30T16:45:19.156Z,9.2
2023-03-30T16:50:19.504Z,6.1
2023-03-30T16:55:19.263Z,7.0
2023-03-30T17:00:19.531Z,7.9
2023-03-30T17:05:19.292Z,8.2
2023-03-30T17:10:16.150Z,6.1
2023-03-30T17:15:16.225Z,8.7
2023-03-30T17:20:19.260Z,8.2
2023-03-30T17:25:19.358Z,8.0
2023-03-30T17:30:19.199Z,7.8
2023-03-30T17:35:19.300Z,6.3
2023-03-30T17:40:19.316Z,6.7
2023-03-30T17:45:19.369Z,7.7
2023-03-30T17:50:19.290Z,7.1
2023-03-30T17:55:19.411Z,5.8
2023-03-30T18:00:19.397Z,7.0
2023-03-30T18:05:16.178Z,8.5
2023-03-30T18:10:19.415Z,7.0
2023-03-30T18:15:19.424Z,6.7
2023-03-30T18:20:19.622Z,6.0
2023-03-30T18:25:31.332Z,8.4
2023-03-30T18:30:19.345Z,8.0
2023-03-30T18:35:19.438Z,8.0
2023-03-30T18:40:19.488Z,6.6
2023-03-30T18:45:19.521Z,7.5
2023-03-30T18:50:19.434Z,7.9
2023-03-30T18:55:16.302Z,10.0
2023-03-30T19:00:16.229Z,6.7
2023-03-30T19:05:19.653Z,6.5
2023-03-30T19:10:19.480Z,6.7
2023-03-30T19:15:19.538Z,9.1
2023-03-30T19:20:19.441Z,9.3
2023-03-30T19:25:19.539Z,6.2
2023-03-30T19:30:19.555Z,7.0
2023-03-30T19:35:19.580Z,7.5
2023-03-30T19:40:19.585Z,6.8
2023-03-30T19:45:19.429Z,9.7
2023-03-30T19:50:16.423Z,6.8
2023-03-30T19:55:16.601Z,7.9
2023-03-30T20:00:19.839Z,10.7
2023-03-30T20:05:19.640Z,7.9
2023-03-30T20:10:19.514Z,8.8
2023-03-30T20:15:19.686Z,8.2
2023-03-30T20:20:19.646Z,8.9
2023-03-30T20:25:19.701Z,9.8
2023-03-30T20:30:19.612Z,9.7
2023-03-30T20:35:19.598Z,8.9
2023-03-30T20:40:19.651Z,9.7
2023-03-30T20:45:16.573Z,7.7
2023-03-30T20:50:19.795Z,10.6
2023-03-30T20:55:19.877Z,8.4
2023-03-30T21:00:19.705Z,8.6
2023-03-30T21:05:19.676Z,10.7
2023-03-30T21:10:19.806Z,9.5
2023-03-30T21:15:19.690Z,9.6
2023-03-30T21:20:19.732Z,9.0
2023-03-30T21:25:19.771Z,11.2
2023-03-30T21:30:19.741Z,11.8
2023-03-30T21:35:16.751Z,9.0
2023-03-30T21:40:16.708Z,8.3
2023-03-30T21:45:19.919Z,9.0
2023-03-30T21:50:19.828Z,9.8
2023-03-30T21:55:19.853Z,11.7
2023-03-30T22:00:19.961Z,11.8
2023-03-30T22:05:19.876Z,12.9
2023-03-30T22:10:19.871Z,11.8
2023-03-30T22:15:20.104Z,11.8
2023-03-30T22:20:19.877Z,13.0
2023-03-30T22:25:19.859Z,9.7
2023-03-30T22:30:16.730Z,10.9
2023-03-30T22:35:16.825Z,9.5
2023-03-30T22:40:19.962Z,11.6
2023-03-30T22:45:19.932Z,11.6
2023-03-30T22:50:20.011Z,10.1
2023-03-30T22:55:19.898Z,10.1
2023-03-30T23:00:19.952Z,10.7
2023-03-30T23:05:19.933Z,11.4
2023-03-30T23:10:19.995Z,11.2
2023-03-30T23:15:20.004Z,11.2
2023-03-30T23:20:16.919Z,10.5
2023-03-30T23:25:16.973Z,10.5
2023-03-30T23:30:20.072Z,9.7
2023-03-30T23:35:20.190Z,12.8
2023-03-30T23:40:20.089Z,11.5
2023-03-30T23:45:20.082Z,11.4
2023-03-30T23:50:20.140Z,12.5
2023-03-30T23:55:20.149Z,13.1
